EW9274 Weather Reports


Display with metric or nautical units.
time (UTC)temp
F
wind
direction
speed
MPH
gust
MPH
rain 1hr
in
rain 24hr
in
rain mn
in
humidity
%
barometer
mb
20240520145524 65 63 2.0 8.0 0.00 0.25 0.25 74 1014.7
20240520145025 65 100 4.0 8.0 0.00 0.25 0.25 74 1014.2
20240520144533 66 96 1.0 3.0 0.00 0.25 0.25 73 1014.5
20240520144025 65 120 0.0 3.0 0.00 0.25 0.25 74 1014.6
20240520143522 65 79 0.0 3.0 0.00 0.25 0.25 75 1014.7
20240520143020 64 112 1.0 3.0 0.00 0.25 0.25 76 1014.6
20240520142519 63 215 0.0 2.0 0.00 0.25 0.25 78 1014.6
20240520142019 63 159 0.0 5.0 0.00 0.25 0.25 79 1014.7
20240520141519 62 138 1.0 6.0 0.00 0.25 0.25 80 1014.4
20240520141018 61 98 2.0 7.0 0.00 0.25 0.25 80 1014.4
20240520140518 60 76 1.0 7.0 0.00 0.25 0.25 82 1014.2
20240520140020 60 116 4.0 9.0 0.00 0.25 0.25 82 1014.3
20240520135520 59 77 5.0 9.0 0.00 0.25 0.25 81 1014.3
20240520135018 59 130 2.0 6.0 0.00 0.25 0.25 83 1014.3
20240520134518 59 98 2.0 6.0 0.00 0.25 0.25 84 1014.4
20240520134017 58 115 3.0 8.0 0.00 0.25 0.25 84 1014.5
20240520133518 58 68 1.0 5.0 0.00 0.25 0.25 86 1014.6
20240520133139 58 63 1.0 6.0 0.00 0.25 0.25 86 1014.7
20240520132515 57 110 3.0 7.0 0.00 0.25 0.25 86 1014.6
20240520132016 57 112 3.0 7.0 0.00 0.25 0.25 86 1014.7
20240520131519 57 103 4.0 9.0 0.00 0.25 0.25 87 1014.7
20240520131015 57 80 4.0 9.0 0.00 0.25 0.25 87 1014.6
20240520130514 56 70 4.0 10.0 0.00 0.25 0.25 87 1014.7
20240520130013 56 98 5.0 10.0 0.00 0.25 0.25 88 1014.7
20240520125512 56 58 4.0 8.0 0.00 0.25 0.25 88 1014.8
20240520125013 56 60 5.0 8.0 0.00 0.25 0.25 88 1014.8
20240520124513 56 108 2.0 7.0 0.00 0.25 0.25 88 1014.8
20240520124013 56 96 4.0 7.0 0.00 0.25 0.25 88 1015.0
20240520123511 56 57 4.0 7.0 0.00 0.25 0.25 89 1014.9
20240520123014 56 95 4.0 7.0 0.00 0.25 0.25 88 1014.9
20240520122516 56 67 4.0 7.0 0.00 0.25 0.25 88 1015.0
20240520122111 56 96 1.0 5.0 0.00 0.25 0.25 88 1015.0
20240520121511 56 53 2.0 6.0 0.01 0.25 0.25 88 1015.0
20240520121010 56 90 2.0 4.0 0.01 0.25 0.25 89 1015.0
20240520120510 55 69 3.0 7.0 0.01 0.25 0.25 88 1014.9
20240520120023 55 85 4.0 7.0 0.02 0.25 0.25 88 1014.8
20240520115509 55 56 4.0 6.0 0.03 0.25 0.25 87 1014.9
20240520115013 55 72 4.0 7.0 0.10 0.25 0.25 87 1015.1
20240520114509 55 70 3.0 6.0 0.24 0.25 0.25 87 1015.0
20240520114009 55 87 2.0 6.0 0.25 0.25 0.25 87 1015.2
20240520113507 55 63 4.0 6.0 0.25 0.25 0.25 86 1015.5
20240520113006 55 105 2.0 7.0 0.25 0.25 0.25 86 1015.7
20240520112507 55 92 4.0 7.0 0.25 0.25 0.25 86 1015.7
20240520112004 55 104 3.0 5.0 0.24 0.24 0.24 85 1015.8
20240520111504 55 1 1.0 4.0 0.24 0.24 0.24 85 1015.8
20240520111003 55 103 1.0 8.0 0.24 0.24 0.24 84 1016.1
20240520110502 56 328 3.0 9.0 0.24 0.24 0.24 82 1016.1
20240520110033 56 315 4.0 11.0 0.23 0.23 0.23 78 1016.4
20240520105558 58 350 2.0 13.0 0.22 0.22 0.22 73 1016.4
20240520105057 62 143 4.0 13.0 0.14 0.14 0.14 61 1016.5
20240520104556 64 294 5.0 14.0 0.01 0.01 0.01 47 1016.5
20240520104058 64 283 5.0 16.0 0.00 0.00 0.00 43 1016.5
20240520103553 64 314 4.0 16.0 0.00 0.00 0.00 42 1016.3
20240520103114 63 214 4.0 18.0 0.00 0.00 0.00 41 1016.3
20240520102551 62 302 6.0 20.0 0.00 0.00 0.00 42 1016.2
20240520102051 61 11 7.0 20.0 0.00 0.00 0.00 42 1015.7
20240520101556 61 301 12.0 20.0 0.00 0.00 0.00 44 1016.0
20240520101049 61 283 0.0 1.0 0.00 0.00 0.00 52 1014.0
20240520100548 61 284 0.0 1.0 0.00 0.00 0.00 50 1013.8
20240520100048 61 283 0.0 1.0 0.00 0.00 0.00 54 1013.8
20240520095549 61 71 0.0 1.0 0.00 0.00 0.00 51 1013.7
20240520095048 61 71 0.0 1.0 0.00 0.00 0.00 53 1013.8
20240520094548 61 72 0.0 1.0 0.00 0.00 0.00 51 1013.6
20240520094050 60 71 1.0 1.0 0.00 0.00 0.00 50 1013.5
20240520093546 60 262 0.0 0.0 0.00 0.00 0.00 52 1013.7
20240520093046 60 261 0.0 0.0 0.00 0.00 0.00 52 1013.9
20240520092547 60 262 0.0 0.0 0.00 0.00 0.00 49 1013.7
20240520092046 60 262 0.0 0.0 0.00 0.00 0.00 49 1013.7
20240520091545 60 262 0.0 0.0 0.00 0.00 0.00 49 1013.7
20240520091047 60 262 0.0 0.0 0.00 0.00 0.00 49 1013.9
20240520090544 60 261 0.0 1.0 0.00 0.00 0.00 48 1013.9
20240520090046 60 262 0.0 0.0 0.00 0.00 0.00 49 1014.2
20240520085540 60 262 0.0 0.0 0.00 0.00 0.00 49 1014.2
20240520085044 60 262 0.0 1.0 0.00 0.00 0.00 49 1014.5
20240520084543 60 262 0.0 2.0 0.00 0.00 0.00 49 1014.4
20240520084040 60 261 0.0 2.0 0.00 0.00 0.00 48 1014.6
20240520083539 60 284 1.0 2.0 0.00 0.00 0.00 49 1014.6
20240520083041 60 262 0.0 2.0 0.00 0.00 0.00 51 1014.6
20240520082539 60 240 1.0 2.0 0.00 0.00 0.00 50 1014.6
20240520082037 60 267 0.0 1.0 0.00 0.00 0.00 49 1014.5
20240520081538 60 260 0.0 1.0 0.00 0.00 0.00 49 1014.6
20240520081041 60 259 0.0 1.0 0.00 0.00 0.00 49 1014.6
20240520080536 60 259 0.0 2.0 0.00 0.00 0.00 50 1014.6
20240520080037 60 253 0.0 2.0 0.00 0.00 0.00 49 1014.7
20240520075536 60 228 0.0 1.0 0.00 0.00 0.00 49 1014.6
20240520075037 60 226 0.0 2.0 0.00 0.00 0.00 48 1014.7
20240520074534 60 92 0.0 3.0 0.00 0.00 0.00 48 1014.5
20240520074034 60 349 1.0 3.0 0.00 0.00 0.00 49 1014.7
20240520073533 60 308 1.0 4.0 0.00 0.00 0.00 50 1014.9
20240520073032 60 231 1.0 5.0 0.00 0.00 0.00 51 1014.7
20240520072532 60 229 2.0 5.0 0.00 0.00 0.00 53 1014.6
20240520072032 60 233 1.0 4.0 0.00 0.00 0.00 53 1014.6
20240520071531 60 252 1.0 3.0 0.00 0.00 0.00 53 1014.8
20240520071031 60 245 1.0 2.0 0.00 0.00 0.00 52 1014.7
20240520070531 60 253 1.0 2.0 0.00 0.00 0.00 50 1014.8
20240520070029 60 243 1.0 2.0 0.00 0.00 0.00 47 1014.9
20240520065529 60 240 0.0 1.0 0.00 0.00 0.00 47 1014.9
20240520065028 60 238 0.0 1.0 0.00 0.00 0.00 46 1014.8
20240520064528 61 240 0.0 1.0 0.00 0.00 0.00 46 1014.9
20240520064028 60 172 0.0 2.0 0.00 0.00 0.00 46 1015.0
20240520063529 60 68 0.0 2.0 0.00 0.00 0.00 46 1015.0
20240520063026 60 90 0.0 1.0 0.00 0.00 0.00 47 1015.1
20240520062526 60 261 0.0 0.0 0.00 0.00 0.00 49 1015.3
20240520062024 60 261 0.0 0.0 0.00 0.00 0.00 47 1015.4
20240520061523 60 263 0.0 0.0 0.00 0.00 0.00 47 1015.6
20240520061022 60 262 0.0 1.0 0.00 0.00 0.00 47 1015.7
20240520060520 60 262 0.0 2.0 0.00 0.00 0.00 47 1015.9
20240520060019 61 215 0.0 1.0 0.00 0.00 0.00 47 1016.1
20240520055518 61 187 0.0 2.0 0.00 0.00 0.00 44 1016.0
20240520055019 62 139 0.0 2.0 0.00 0.00 0.00 44 1016.2
20240520054519 62 124 0.0 3.0 0.00 0.00 0.00 44 1016.3
20240520054017 61 54 1.0 3.0 0.00 0.00 0.00 45 1016.3
20240520053515 61 117 0.0 2.0 0.00 0.00 0.00 46 1016.6
20240520053018 62 155 1.0 2.0 0.00 0.00 0.00 45 1016.8
20240520052512 62 170 0.0 5.0 0.00 0.00 0.00 45 1017.1
20240520052012 62 170 2.0 6.0 0.00 0.00 0.00 45 1017.4
20240520051512 62 271 2.0 4.0 0.00 0.00 0.00 43 1017.5
20240520051010 62 276 0.0 4.0 0.00 0.00 0.00 43 1017.2
20240520050509 62 262 1.0 8.0 0.00 0.00 0.00 44 1016.9
20240520050009 62 276 4.0 8.0 0.00 0.00 0.00 42 1017.0
20240520045508 62 276 3.0 6.0 0.00 0.00 0.00 43 1016.8
20240520045008 62 155 0.0 2.0 0.00 0.00 0.00 40 1016.3
20240520044508 62 152 0.0 2.0 0.00 0.00 0.00 39 1016.2
20240520044008 62 141 0.0 3.0 0.00 0.00 0.00 42 1016.3
20240520043507 62 47 0.0 3.0 0.00 0.00 0.00 41 1016.4
20240520043006 62 93 0.0 3.0 0.00 0.00 0.00 43 1016.3
20240520042506 62 198 0.0 4.0 0.00 0.00 0.00 44 1016.3
20240520042004 62 82 1.0 4.0 0.00 0.00 0.00 44 1016.0
20240520041510 63 67 3.0 4.0 0.00 0.00 0.00 44 1016.1
20240520041005 63 64 2.0 3.0 0.00 0.00 0.00 44 1016.1
20240520040505 62 101 0.0 4.0 0.00 0.00 0.00 45 1016.3
20240520040005 62 132 0.0 4.0 0.00 0.00 0.00 46 1016.3
20240520035502 63 139 1.0 4.0 0.00 0.00 0.00 47 1016.3
20240520035002 63 132 1.0 4.0 0.00 0.00 0.00 45 1016.4
20240520034501 63 75 2.0 3.0 0.00 0.00 0.00 43 1016.8
20240520034002 63 86 0.0 3.0 0.00 0.00 0.00 43 1017.1
20240520033502 63 153 0.0 1.0 0.00 0.00 0.00 44 1017.1
20240520033104 63 87 0.0 1.0 0.00 0.00 0.00 46 1017.3
20240520032559 63 89 0.0 1.0 0.00 0.00 0.00 45 1017.3
20240520032100 64 88 0.0 2.0 0.00 0.00 0.00 46 1017.4
20240520031559 64 86 0.0 3.0 0.00 0.00 0.00 45 1017.4
20240520031057 64 63 2.0 3.0 0.00 0.00 0.00 42 1017.3
20240520030600 64 68 2.0 3.0 0.00 0.00 0.00 42 1017.3
20240520030057 64 65 2.0 3.0 0.00 0.00 0.00 42 1017.3
20240520025556 64 65 1.0 2.0 0.00 0.00 0.00 43 1017.3
20240520025056 64 71 1.0 3.0 0.00 0.00 0.00 43 1017.5
20240520024558 64 84 2.0 3.0 0.00 0.00 0.00 43 1017.3
20240520024102 64 75 2.0 4.0 0.00 0.00 0.00 43 1017.1
20240520023558 64 64 2.0 4.0 0.00 0.00 0.00 44 1017.2
20240520023104 64 76 1.0 3.0 0.00 0.00 0.00 44 1017.3
20240520022554 65 110 1.0 3.0 0.00 0.00 0.00 44 1017.3
20240520022052 65 78 0.0 3.0 0.00 0.00 0.00 44 1017.3
20240520021600 65 105 1.0 4.0 0.00 0.00 0.00 44 1017.4
20240520021052 65 99 2.0 4.0 0.00 0.00 0.00 44 1017.3
20240520020553 65 47 0.0 3.0 0.00 0.00 0.00 45 1017.2
20240520020052 65 132 0.0 4.0 0.00 0.00 0.00 45 1017.3
20240520015555 66 27 2.0 4.0 0.00 0.00 0.00 45 1017.1
20240520015052 66 150 1.0 3.0 0.00 0.00 0.00 45 1017.2
20240520014557 66 127 0.0 4.0 0.00 0.00 0.00 45 1017.1
20240520014052 66 101 3.0 4.0 0.00 0.00 0.00 44 1017.1
20240520013551 66 58 1.0 3.0 0.00 0.00 0.00 45 1017.2
20240520013050 65 81 0.0 2.0 0.00 0.00 0.00 46 1017.0
20240520012551 66 137 1.0 3.0 0.00 0.00 0.00 46 1017.1
20240520012050 66 117 1.0 3.0 0.00 0.00 0.00 46 1017.1
20240520011556 66 128 1.0 4.0 0.00 0.00 0.00 46 1017.1
20240520011049 66 120 2.0 4.0 0.00 0.00 0.00 46 1017.2
20240520010550 66 129 1.0 3.0 0.00 0.00 0.00 46 1017.3
20240520010052 66 98 0.0 3.0 0.00 0.00 0.00 46 1017.4
20240520005549 66 96 1.0 3.0 0.00 0.00 0.00 45 1017.5
20240520005050 66 112 0.0 5.0 0.00 0.00 0.00 45 1017.5
20240520004550 66 113 1.0 5.0 0.00 0.00 0.00 45 1017.4
20240520004048 67 147 2.0 5.0 0.00 0.00 0.00 45 1017.1
20240520003549 67 115 1.0 5.0 0.00 0.00 0.00 44 1017.1
20240520003048 67 109 2.0 6.0 0.00 0.00 0.00 43 1017.3
20240520002548 67 172 1.0 6.0 0.00 0.00 0.00 43 1017.1
20240520002048 67 82 1.0 6.0 0.00 0.00 0.00 43 1017.1
20240520001547 67 137 2.0 5.0 0.00 0.00 0.00 42 1017.3
20240520001048 67 70 2.0 5.0 0.00 0.00 0.00 42 1017.4
20240520000549 68 134 1.0 6.0 0.00 0.00 0.00 42 1017.3
20240520000047 68 121 3.0 7.0 0.00 0.00 0.00 41 1017.4
20240519235547 68 49 3.0 5.0 0.00 0.00 0.00 41 1017.2
20240519235047 68 89 3.0 7.0 0.00 0.00 0.00 41 1017.1
20240519234547 68 56 4.0 7.0 0.00 0.00 0.00 40 1017.1
20240519234047 69 60 3.0 6.0 0.00 0.00 0.00 40 1017.3
20240519233552 69 120 2.0 7.0 0.00 0.00 0.00 39 1017.1
20240519233045 69 65 3.0 9.0 0.00 0.00 0.00 39 1016.9
20240519232546 69 124 5.0 10.0 0.00 0.00 0.00 39 1016.8
20240519232046 69 57 5.0 10.0 0.00 0.00 0.00 39 1016.6
20240519231556 69 120 3.0 11.0 0.00 0.00 0.00 39 1016.6
20240519231045 70 113 4.0 10.0 0.00 0.00 0.00 39 1016.7
20240519230546 70 101 3.0 9.0 0.00 0.00 0.00 38 1016.8
20240519230044 70 234 3.0 9.0 0.00 0.00 0.00 38 1016.9
20240519225544 70 132 3.0 9.0 0.00 0.00 0.00 38 1016.9
20240519225031 70 111 1.0 8.0 0.00 0.00 0.00 39 1017.0
20240519224532 70 82 2.0 12.0 0.00 0.00 0.00 39 1016.8
20240519224032 70 118 6.0 12.0 0.00 0.00 0.00 38 1016.9
20240519223531 71 101 4.0 9.0 0.00 0.00 0.00 38 1016.9
20240519223035 71 124 3.0 10.0 0.00 0.00 0.00 38 1016.9
20240519222530 71 101 5.0 10.0 0.00 0.00 0.00 38 1016.9
20240519222030 71 122 5.0 9.0 0.00 0.00 0.00 38 1016.9
20240519221534 71 98 5.0 9.0 0.00 0.00 0.00 38 1016.9
20240519221132 72 124 3.0 8.0 0.00 0.00 0.00 38 1017.0
20240519220529 72 114 4.0 8.0 0.00 0.00 0.00 37 1017.1
20240519220038 72 114 3.0 9.0 0.00 0.00 0.00 38 1017.3
20240519215528 72 105 5.0 10.0 0.00 0.00 0.00 37 1017.3
20240519215028 73 99 3.0 12.0 0.00 0.00 0.00 37 1017.4
20240519214531 73 148 7.0 12.0 0.00 0.00 0.00 37 1017.3
20240519214027 73 46 3.0 8.0 0.00 0.00 0.00 37 1017.3
20240519213530 72 129 5.0 9.0 0.00 0.00 0.00 38 1017.4
20240519213031 73 77 6.0 9.0 0.00 0.00 0.00 38 1017.5
20240519212525 73 82 5.0 8.0 0.00 0.00 0.00 38 1017.5
20240519212025 73 211 2.0 10.0 0.00 0.00 0.00 38 1017.4
20240519211532 73 122 4.0 11.0 0.00 0.00 0.00 37 1017.5
20240519211124 74 86 5.0 11.0 0.00 0.00 0.00 36 1017.5
20240519210524 75 91 4.0 7.0 0.00 0.00 0.00 37 1017.6
20240519210024 74 149 2.0 8.0 0.00 0.00 0.00 38 1017.6
20240519205522 74 123 2.0 9.0 0.00 0.00 0.00 36 1017.6
20240519205022 75 151 4.0 9.0 0.00 0.00 0.00 37 1017.7
20240519204522 75 146 5.0 9.0 0.00 0.00 0.00 36 1017.6
20240519204021 75 115 4.0 10.0 0.00 0.00 0.00 37 1017.5
20240519203521 75 145 3.0 10.0 0.00 0.00 0.00 37 1017.5
20240519203020 75 188 3.0 10.0 0.00 0.00 0.00 37 1017.5
20240519202520 76 133 4.0 10.0 0.00 0.00 0.00 36 1017.4
20240519202019 75 66 4.0 9.0 0.00 0.00 0.00 37 1017.3
20240519201525 75 80 5.0 8.0 0.00 0.00 0.00 37 1017.3
20240519201018 75 190 2.0 10.0 0.00 0.00 0.00 38 1017.2
20240519200517 75 170 5.0 10.0 0.00 0.00 0.00 38 1017.0
20240519200017 75 115 6.0 11.0 0.00 0.00 0.00 38 1017.1
20240519195517 75 143 7.0 11.0 0.00 0.00 0.00 37 1017.0
20240519195017 75 113 5.0 10.0 0.00 0.00 0.00 38 1017.2
20240519194517 76 95 7.0 10.0 0.00 0.00 0.00 36 1017.1
20240519194017 77 56 3.0 9.0 0.00 0.00 0.00 37 1017.1
20240519193515 77 50 3.0 6.0 0.00 0.00 0.00 37 1017.5
20240519193019 76 273 0.0 7.0 0.00 0.00 0.00 38 1017.6
20240519192514 75 142 2.0 8.0 0.00 0.00 0.00 38 1017.6
20240519192015 76 93 5.0 8.0 0.00 0.00 0.00 37 1017.5
20240519191523 76 143 2.0 7.0 0.00 0.00 0.00 37 1017.5
20240519191013 75 176 3.0 9.0 0.00 0.00 0.00 38 1017.6
20240519190513 75 120 3.0 9.0 0.00 0.00 0.00 38 1017.5
20240519190013 75 166 4.0 7.0 0.00 0.00 0.00 38 1017.6
20240519185516 76 101 2.0 8.0 0.00 0.00 0.00 37 1017.5
20240519185012 75 162 4.0 9.0 0.00 0.00 0.00 38 1017.6
20240519184512 77 79 2.0 9.0 0.00 0.00 0.00 38 1017.6
20240519184011 77 127 2.0 6.0 0.00 0.00 0.00 38 1017.7
20240519183512 77 242 1.0 5.0 0.00 0.00 0.00 38 1017.5
20240519183011 77 85 1.0 5.0 0.00 0.00 0.00 38 1017.5
20240519182509 78 134 2.0 8.0 0.00 0.00 0.00 38 1017.7
20240519182010 77 70 4.0 8.0 0.00 0.00 0.00 37 1017.8
20240519181510 77 100 1.0 7.0 0.00 0.00 0.00 39 1017.7
20240519181009 76 158 1.0 7.0 0.00 0.00 0.00 39 1017.8
20240519180507 75 150 4.0 8.0 0.00 0.00 0.00 39 1017.8
20240519180007 76 49 4.0 9.0 0.00 0.00 0.00 38 1017.8
20240519175507 76 128 5.0 9.0 0.00 0.00 0.00 38 1017.8
20240519175007 76 141 3.0 7.0 0.00 0.00 0.00 39 1017.9
20240519174519 75 149 2.0 9.0 0.00 0.00 0.00 40 1017.9
20240519174008 75 169 3.0 9.0 0.00 0.00 0.00 40 1017.8
20240519173506 75 120 3.0 9.0 0.00 0.00 0.00 41 1017.6
20240519173006 75 153 5.0 9.0 0.00 0.00 0.00 41 1017.6
20240519172506 75 62 4.0 8.0 0.00 0.00 0.00 41 1017.5
20240519172006 75 112 4.0 11.0 0.00 0.00 0.00 41 1017.7
20240519171516 76 93 5.0 11.0 0.00 0.00 0.00 40 1017.8
20240519171006 76 115 2.0 7.0 0.00 0.00 0.00 36 1017.9
20240519170507 76 158 2.0 5.0 0.00 0.00 0.00 36 1018.0
20240519170004 76 105 2.0 4.0 0.00 0.00 0.00 36 1018.2
20240519165507 76 122 2.0 4.0 0.00 0.00 0.00 36 1018.2
20240519165102 76 129 2.0 5.0 0.00 0.00 0.00 36 1018.2
20240519164558 76 84 2.0 5.0 0.00 0.00 0.00 36 1018.3
20240519164057 77 297 1.0 4.0 0.00 0.00 0.00 36 1018.2
20240519163555 76 336 0.0 3.0 0.00 0.00 0.00 36 1018.1
20240519163056 75 304 1.0 4.0 0.00 0.00 0.00 36 1018.1
20240519162555 75 69 1.0 5.0 0.00 0.00 0.00 37 1018.3
20240519162055 75 82 2.0 6.0 0.00 0.00 0.00 36 1018.4
20240519161556 76 55 2.0 6.0 0.00 0.00 0.00 35 1018.2
20240519161055 76 203 1.0 4.0 0.00 0.00 0.00 35 1018.3
20240519160553 75 159 1.0 4.0 0.00 0.00 0.00 35 1018.3
20240519160051 74 165 0.0 3.0 0.00 0.00 0.00 38 1018.3
20240519155557 73 74 1.0 5.0 0.00 0.00 0.00 38 1018.3
20240519155050 72 71 1.0 6.0 0.00 0.00 0.00 40 1018.3
20240519154549 72 37 2.0 10.0 0.00 0.00 0.00 41 1018.2
20240519154051 72 75 8.0 10.0 0.00 0.00 0.00 40 1018.3
20240519153550 73 66 4.0 6.0 0.00 0.00 0.00 40 1018.4
20240519153049 73 105 3.0 6.0 0.00 0.00 0.00 40 1018.4
20240519152547 73 78 2.0 5.0 0.00 0.00 0.00 40 1018.4
20240519152047 73 86 1.0 6.0 0.00 0.00 0.00 40 1018.4
20240519151548 72 172 0.0 6.0 0.00 0.00 0.00 41 1018.4
20240519151046 72 50 2.0 7.0 0.00 0.00 0.00 41 1018.5
20240519150546 72 245 4.0 7.0 0.00 0.00 0.00 43 1018.5
20240519150046 71 290 0.0 8.0 0.00 0.00 0.00 43 1018.7